createdAt,value
2022-08-17T00:02:25.395Z,18.68
2022-08-17T00:04:54.099Z,18.61
2022-08-17T00:07:21.299Z,18.57
2022-08-17T00:09:47.883Z,18.53
2022-08-17T00:12:43.210Z,18.53
2022-08-17T00:15:01.571Z,18.50
2022-08-17T00:17:28.295Z,18.43
2022-08-17T00:19:55.025Z,18.43
2022-08-17T00:22:32.279Z,18.45
2022-08-17T00:25:03.007Z,18.47
2022-08-17T00:27:29.520Z,18.43
2022-08-17T00:29:56.083Z,18.41
2022-08-17T00:33:10.957Z,18.40
2022-08-17T00:35:12.095Z,18.39
2022-08-17T00:37:38.905Z,18.40
2022-08-17T00:40:06.592Z,18.38
2022-08-17T00:42:33.265Z,18.39
2022-08-17T00:45:00.152Z,18.35
2022-08-17T00:47:26.734Z,18.34
2022-08-17T00:49:54.006Z,18.31
2022-08-17T00:52:27.624Z,18.32
2022-08-17T00:54:55.835Z,18.29
2022-08-17T00:57:35.169Z,18.28
2022-08-17T01:00:11.235Z,18.23
2022-08-17T01:02:43.342Z,18.20
2022-08-17T01:05:16.463Z,18.21
2022-08-17T01:07:46.820Z,18.20
2022-08-17T01:10:57.529Z,18.18
2022-08-17T01:13:02.695Z,18.17
2022-08-17T01:15:31.243Z,18.17
2022-08-17T01:17:58.095Z,18.16
2022-08-17T01:20:25.125Z,18.17
2022-08-17T01:22:52.309Z,18.15
2022-08-17T01:25:20.636Z,18.18
2022-08-17T01:27:49.517Z,18.18
2022-08-17T01:30:58.955Z,18.20
2022-08-17T01:33:04.426Z,18.19
2022-08-17T01:35:31.529Z,18.21
2022-08-17T01:37:58.133Z,18.24
2022-08-17T01:40:31.204Z,18.24
2022-08-17T01:43:03.489Z,18.26
2022-08-17T01:45:33.873Z,18.27
2022-08-17T01:48:01.269Z,18.27
2022-08-17T01:50:31.570Z,18.29
2022-08-17T01:53:26.347Z,18.30
2022-08-17T01:55:57.816Z,18.29
2022-08-17T01:58:24.808Z,18.28
2022-08-17T02:01:01.304Z,18.25
2022-08-17T02:03:29.074Z,18.24
2022-08-17T02:05:56.525Z,18.24
2022-08-17T02:08:38.873Z,18.19
2022-08-17T02:11:15.727Z,18.18
2022-08-17T02:13:44.080Z,18.18
2022-08-17T02:16:10.986Z,18.18
2022-08-17T02:18:37.645Z,18.26
2022-08-17T02:21:04.954Z,18.27
2022-08-17T02:23:35.559Z,18.21
2022-08-17T02:26:02.436Z,18.18
2022-08-17T02:28:29.299Z,18.20
2022-08-17T02:31:01.727Z,18.16
2022-08-17T02:33:41.507Z,18.15
2022-08-17T02:36:12.169Z,18.14
2022-08-17T02:38:40.238Z,18.12
2022-08-17T02:41:07.044Z,18.15
2022-08-17T02:43:33.726Z,18.19
2022-08-17T02:46:00.516Z,18.14
2022-08-17T02:48:31.063Z,18.16
2022-08-17T02:50:58.401Z,18.20
2022-08-17T02:53:25.770Z,18.21
2022-08-17T02:55:53.148Z,18.22
2022-08-17T02:58:34.732Z,18.26
2022-08-17T03:01:07.051Z,18.22
2022-08-17T03:03:34.788Z,18.17
2022-08-17T03:06:01.845Z,18.11
2022-08-17T03:08:28.584Z,18.01
2022-08-17T03:10:55.712Z,17.94
2022-08-17T03:13:22.950Z,17.89
2022-08-17T03:15:50.587Z,17.85
2022-08-17T03:18:24.575Z,17.86
2022-08-17T03:20:54.925Z,17.80
2022-08-17T03:23:24.134Z,17.77
2022-08-17T03:25:53.307Z,17.74
2022-08-17T03:28:21.111Z,17.75
2022-08-17T03:30:47.741Z,17.74
2022-08-17T03:33:14.700Z,17.74
2022-08-17T03:35:42.092Z,17.78
2022-08-17T03:38:12.796Z,17.79
2022-08-17T03:40:56.729Z,17.81
2022-08-17T03:43:25.014Z,17.85
2022-08-17T03:46:27.183Z,17.86
2022-08-17T03:49:14.574Z,17.90
2022-08-17T03:52:00.091Z,17.92
2022-08-17T03:54:45.410Z,17.94
2022-08-17T03:57:12.543Z,17.94
2022-08-17T03:59:40.563Z,17.91
2022-08-17T04:02:11.569Z,17.91
2022-08-17T04:04:39.276Z,17.87
2022-08-17T04:07:06.621Z,17.85
2022-08-17T04:09:33.532Z,17.80
2022-08-17T04:12:01.316Z,17.76
2022-08-17T04:14:39.222Z,17.75
2022-08-17T04:17:21.446Z,17.76
2022-08-17T04:19:47.990Z,17.74
2022-08-17T04:22:30.277Z,17.76
2022-08-17T04:25:09.031Z,17.77
2022-08-17T04:27:36.580Z,17.81
2022-08-17T04:30:07.058Z,17.81
2022-08-17T04:33:02.246Z,17.81
2022-08-17T04:35:36.571Z,17.87
2022-08-17T04:38:03.141Z,17.85
2022-08-17T04:40:48.056Z,17.83
2022-08-17T04:43:18.975Z,17.78
2022-08-17T04:45:56.132Z,17.76
2022-08-17T04:48:36.111Z,17.73
2022-08-17T04:51:09.931Z,17.73
2022-08-17T04:53:38.091Z,17.74
2022-08-17T04:56:04.948Z,17.71
2022-08-17T04:58:31.785Z,17.72
2022-08-17T05:00:58.454Z,17.71
2022-08-17T05:03:25.036Z,17.72
2022-08-17T05:05:51.590Z,17.74
2022-08-17T05:08:20.157Z,17.76
2022-08-17T05:10:48.313Z,17.82
2022-08-17T05:13:17.720Z,17.84
2022-08-17T05:15:47.880Z,17.84
2022-08-17T05:18:15.577Z,17.83
2022-08-17T05:20:42.226Z,17.83
2022-08-17T05:23:12.453Z,17.89
2022-08-17T05:25:48.625Z,17.88
2022-08-17T05:28:18.701Z,17.87
2022-08-17T05:30:50.143Z,17.85
2022-08-17T05:33:20.207Z,17.87
2022-08-17T05:35:49.360Z,17.91
2022-08-17T05:38:18.241Z,17.90
2022-08-17T05:40:45.241Z,17.92
2022-08-17T05:43:11.722Z,17.93
2022-08-17T05:45:55.667Z,17.94
2022-08-17T05:48:35.429Z,17.94
2022-08-17T05:51:21.181Z,17.98
2022-08-17T05:54:12.681Z,18.04
2022-08-17T05:56:56.186Z,18.01
2022-08-17T05:59:34.765Z,18.05
2022-08-17T06:02:19.905Z,18.05
2022-08-17T06:04:46.367Z,18.08
2022-08-17T06:07:34.937Z,18.10
2022-08-17T06:10:29.028Z,18.15
2022-08-17T06:13:26.167Z,18.17
2022-08-17T06:16:33.071Z,18.20
2022-08-17T06:19:06.283Z,18.21
2022-08-17T06:21:39.443Z,18.21
2022-08-17T06:24:34.318Z,18.23
2022-08-17T06:27:36.143Z,18.26
2022-08-17T06:30:09.200Z,18.28
2022-08-17T06:32:48.150Z,18.29
2022-08-17T06:35:19.257Z,18.30
2022-08-17T06:37:55.052Z,18.32
2022-08-17T06:40:45.582Z,18.36
2022-08-17T06:43:29.353Z,18.39
2022-08-17T06:46:11.440Z,18.40
2022-08-17T06:48:47.202Z,18.40
2022-08-17T06:51:33.417Z,18.40
2022-08-17T06:54:09.025Z,18.42
2022-08-17T06:56:53.060Z,18.42
2022-08-17T06:59:36.293Z,18.44
2022-08-17T07:02:29.132Z,18.45
2022-08-17T07:05:13.573Z,18.40
2022-08-17T07:08:04.962Z,18.41
2022-08-17T07:10:36.733Z,18.48
2022-08-17T07:13:20.318Z,18.55
2022-08-17T07:15:56.397Z,18.59
2022-08-17T07:18:26.081Z,18.55
2022-08-17T07:21:02.145Z,18.55
2022-08-17T07:23:44.594Z,18.60
2022-08-17T07:26:13.290Z,18.62
2022-08-17T07:28:39.921Z,18.65
2022-08-17T07:31:07.279Z,18.73
2022-08-17T07:33:36.854Z,18.77
2022-08-17T07:36:03.809Z,18.80
2022-08-17T07:38:32.828Z,18.82
2022-08-17T07:41:05.091Z,18.85
2022-08-17T07:43:39.810Z,18.89
2022-08-17T07:46:33.365Z,18.95
2022-08-17T07:49:08.893Z,18.95
2022-08-17T07:51:45.603Z,18.99
2022-08-17T07:54:15.300Z,19.03
2022-08-17T07:56:56.188Z,19.03
2022-08-17T07:59:24.186Z,19.13
2022-08-17T08:01:57.987Z,19.18
2022-08-17T08:07:21.689Z,19.29
2022-08-17T08:10:11.281Z,19.31
2022-08-17T08:12:42.180Z,19.23
2022-08-17T08:15:21.834Z,19.13
2022-08-17T08:17:56.332Z,19.15
2022-08-17T08:20:53.872Z,19.14
2022-08-17T08:23:26.566Z,19.13
2022-08-17T08:26:30.991Z,19.15
2022-08-17T08:29:12.591Z,19.16
2022-08-17T08:32:07.640Z,19.22
2022-08-17T08:34:58.883Z,19.20
2022-08-17T08:37:43.682Z,19.21
2022-08-17T08:40:33.749Z,19.25
2022-08-17T08:43:22.105Z,19.38
2022-08-17T08:45:57.845Z,19.49
2022-08-17T08:48:56.878Z,19.57
2022-08-17T08:51:34.568Z,19.58
2022-08-17T08:54:31.432Z,19.67
2022-08-17T08:57:23.310Z,19.63
2022-08-17T08:59:58.161Z,19.65
2022-08-17T09:02:40.286Z,19.61
2022-08-17T09:05:39.306Z,19.52
2022-08-17T09:08:46.065Z,19.50
2022-08-17T09:11:12.566Z,19.58
2022-08-17T09:14:29.367Z,19.56
2022-08-17T09:17:21.005Z,19.59
2022-08-17T09:20:27.436Z,19.78
2022-08-17T09:23:04.007Z,19.82
2022-08-17T09:25:34.970Z,19.82
2022-08-17T09:28:17.082Z,19.84
2022-08-17T09:31:02.522Z,19.68
2022-08-17T09:33:31.728Z,19.70
2022-08-17T09:36:11.753Z,19.69
2022-08-17T09:38:44.030Z,19.63
2022-08-17T09:41:33.430Z,19.53
2022-08-17T09:44:22.767Z,19.51
2022-08-17T09:47:00.186Z,19.54
2022-08-17T09:49:40.703Z,19.60
2022-08-17T09:52:13.725Z,19.56
2022-08-17T09:54:41.396Z,19.53
2022-08-17T09:57:30.191Z,19.60
2022-08-17T10:00:13.828Z,19.68
2022-08-17T10:02:53.155Z,19.68
2022-08-17T10:05:41.400Z,19.73
2022-08-17T10:08:17.040Z,19.84
2022-08-17T10:11:07.241Z,19.86
2022-08-17T10:13:59.478Z,19.96
2022-08-17T10:16:55.890Z,19.90
2022-08-17T10:19:28.346Z,19.94
2022-08-17T10:22:35.244Z,20.01
2022-08-17T10:25:27.852Z,19.93
2022-08-17T10:28:19.652Z,19.93
2022-08-17T10:31:10.407Z,19.93
2022-08-17T10:34:09.575Z,19.80
2022-08-17T10:36:48.977Z,19.79
2022-08-17T10:39:30.785Z,19.70
2022-08-17T10:42:03.174Z,19.69
2022-08-17T10:44:48.471Z,19.77
2022-08-17T10:47:18.642Z,19.84
2022-08-17T10:49:49.699Z,19.86
2022-08-17T10:52:28.350Z,19.90
2022-08-17T10:54:58.589Z,19.91
2022-08-17T10:57:31.813Z,19.84
2022-08-17T11:00:00.316Z,19.83
2022-08-17T11:02:50.002Z,19.74
2022-08-17T11:05:28.663Z,19.71
2022-08-17T11:08:23.909Z,19.71
2022-08-17T11:11:12.401Z,19.67
2022-08-17T11:14:08.607Z,19.57
2022-08-17T11:16:51.208Z,19.53
2022-08-17T11:19:41.212Z,19.51
2022-08-17T11:22:16.488Z,19.47
2022-08-17T11:24:47.777Z,19.46
2022-08-17T11:27:27.616Z,19.56
2022-08-17T11:30:01.757Z,19.64
2022-08-17T11:32:54.804Z,19.64
2022-08-17T11:35:21.772Z,19.67
2022-08-17T11:38:30.503Z,19.61
2022-08-17T11:41:15.685Z,19.68
2022-08-17T11:44:11.550Z,19.78
2022-08-17T11:47:15.323Z,19.89
2022-08-17T11:50:29.107Z,19.84
2022-08-17T11:52:55.815Z,19.91
2022-08-17T11:55:41.768Z,19.85
2022-08-17T11:58:39.584Z,19.88
2022-08-17T12:01:07.905Z,19.80
2022-08-17T12:03:34.665Z,19.74
2022-08-17T12:06:19.629Z,19.69
2022-08-17T12:08:56.548Z,19.68
2022-08-17T12:11:57.775Z,19.65
2022-08-17T12:15:08.488Z,19.61
2022-08-17T12:17:39.347Z,19.65
2022-08-17T12:20:34.009Z,19.74
2022-08-17T12:23:06.259Z,19.71
2022-08-17T12:26:05.357Z,19.72
2022-08-17T12:28:36.429Z,19.77
2022-08-17T12:31:06.996Z,19.76
2022-08-17T12:33:36.866Z,19.80
2022-08-17T12:36:07.527Z,19.72
2022-08-17T12:38:37.514Z,19.62
2022-08-17T12:41:26.318Z,19.59
2022-08-17T12:44:02.309Z,19.53
2022-08-17T12:46:44.756Z,19.58
2022-08-17T12:49:35.878Z,19.59
2022-08-17T12:52:05.701Z,19.57
2022-08-17T12:54:44.087Z,19.53
2022-08-17T12:57:34.976Z,19.53
2022-08-17T13:00:32.410Z,19.59
2022-08-17T13:03:02.172Z,19.59
2022-08-17T13:05:36.312Z,19.58
2022-08-17T13:08:23.523Z,19.59
2022-08-17T13:11:01.797Z,19.65
2022-08-17T13:13:34.754Z,19.62
2022-08-17T13:16:05.398Z,19.56
2022-08-17T13:18:36.521Z,19.59
2022-08-17T13:21:03.313Z,19.69
2022-08-17T13:23:32.316Z,19.60
2022-08-17T13:26:05.378Z,19.59
2022-08-17T13:28:36.015Z,19.52
2022-08-17T13:31:28.068Z,19.55
2022-08-17T13:34:13.385Z,19.53
2022-08-17T13:36:43.714Z,19.53
2022-08-17T13:39:21.672Z,19.49
2022-08-17T13:41:53.853Z,19.47
2022-08-17T13:44:30.887Z,19.44
2022-08-17T13:46:59.824Z,19.47
2022-08-17T13:49:40.983Z,19.40
2022-08-17T13:52:37.988Z,19.44
2022-08-17T13:55:15.745Z,19.46
2022-08-17T13:57:47.003Z,19.46
2022-08-17T14:00:30.852Z,19.51
2022-08-17T14:02:58.527Z,19.56
2022-08-17T14:05:25.778Z,19.53
2022-08-17T14:07:58.719Z,19.50
2022-08-17T14:10:26.369Z,19.51
2022-08-17T14:12:53.460Z,19.61
2022-08-17T14:15:55.024Z,19.61
2022-08-17T14:18:12.212Z,19.66
2022-08-17T14:20:39.893Z,19.64
2022-08-17T14:23:08.396Z,19.63
2022-08-17T14:25:35.060Z,19.64
2022-08-17T14:28:01.940Z,19.50
2022-08-17T14:30:49.997Z,19.48
2022-08-17T14:33:25.546Z,19.49
2022-08-17T14:36:16.421Z,19.49
2022-08-17T14:38:43.033Z,19.38
2022-08-17T14:41:09.595Z,19.34
2022-08-17T14:43:36.460Z,19.29
2022-08-17T14:46:03.129Z,19.21
2022-08-17T14:48:29.717Z,19.18
2022-08-17T14:50:56.737Z,19.16
2022-08-17T14:53:23.427Z,19.13
2022-08-17T14:55:51.804Z,19.12
2022-08-17T14:58:19.940Z,19.12
2022-08-17T15:00:46.846Z,19.11
2022-08-17T15:03:14.564Z,19.05
2022-08-17T15:05:44.274Z,19.04
2022-08-17T15:08:11.220Z,18.97
2022-08-17T15:10:39.168Z,18.86
2022-08-17T15:13:17.070Z,18.72
2022-08-17T15:15:43.800Z,18.68
2022-08-17T15:18:10.346Z,18.62
2022-08-17T15:20:36.881Z,18.61
2022-08-17T15:23:03.444Z,18.56
2022-08-17T15:25:32.463Z,18.52
2022-08-17T15:28:00.556Z,18.47
2022-08-17T15:30:28.434Z,18.46
2022-08-17T15:32:57.768Z,18.47
2022-08-17T15:35:27.369Z,18.47
2022-08-17T15:37:55.983Z,18.32
2022-08-17T15:40:22.497Z,18.27
2022-08-17T15:42:49.042Z,18.26
2022-08-17T15:45:16.907Z,18.20
2022-08-17T15:47:43.611Z,18.20
2022-08-17T15:50:10.665Z,18.17
2022-08-17T15:52:40.240Z,18.21
2022-08-17T15:55:10.720Z,18.16
2022-08-17T15:57:37.316Z,18.13
2022-08-17T16:00:05.827Z,18.13
2022-08-17T16:03:45.668Z,18.11
2022-08-17T16:05:24.786Z,18.09
2022-08-17T16:07:52.417Z,18.10
2022-08-17T16:10:19.630Z,18.09
2022-08-17T16:12:47.949Z,18.10
2022-08-17T16:15:16.236Z,18.08
2022-08-17T16:17:43.073Z,18.12
2022-08-17T16:20:19.771Z,18.22
2022-08-17T16:22:48.912Z,18.27
2022-08-17T16:25:19.521Z,18.30
2022-08-17T16:27:48.275Z,18.33
2022-08-17T16:30:17.671Z,18.39
2022-08-17T16:32:45.384Z,18.32
2022-08-17T16:35:16.184Z,18.35
2022-08-17T16:37:45.435Z,18.31
2022-08-17T16:40:13.209Z,18.37
2022-08-17T16:42:40.210Z,18.44
2022-08-17T16:45:14.607Z,18.43
2022-08-17T16:47:41.981Z,18.49
2022-08-17T16:50:11.750Z,18.54
2022-08-17T16:52:40.535Z,18.61
2022-08-17T16:55:09.267Z,18.68
2022-08-17T16:57:47.412Z,18.72
2022-08-17T17:00:18.240Z,18.75
2022-08-17T17:02:47.671Z,18.70
2022-08-17T17:05:29.256Z,18.71
2022-08-17T17:08:18.347Z,18.77
2022-08-17T17:10:47.360Z,18.72
2022-08-17T17:13:38.953Z,18.71
2022-08-17T17:16:20.848Z,18.77
2022-08-17T17:19:15.011Z,18.83
2022-08-17T17:21:59.990Z,18.88
2022-08-17T17:24:41.039Z,18.89
2022-08-17T17:27:17.408Z,18.84
2022-08-17T17:30:08.180Z,18.86
2022-08-17T17:32:44.638Z,18.82
2022-08-17T17:35:18.899Z,18.82
2022-08-17T17:37:46.877Z,18.85
2022-08-17T17:40:28.716Z,18.87
2022-08-17T17:43:09.455Z,18.87
2022-08-17T17:45:53.035Z,18.84
2022-08-17T17:48:19.681Z,18.83
2022-08-17T17:51:05.537Z,18.81
2022-08-17T17:53:48.385Z,18.75
2022-08-17T17:56:45.057Z,18.80
2022-08-17T17:59:27.090Z,18.72
2022-08-17T18:02:08.804Z,18.73
2022-08-17T18:04:59.088Z,18.69
2022-08-17T18:07:42.412Z,18.68
2022-08-17T18:10:29.541Z,18.71
2022-08-17T18:13:15.667Z,18.69
2022-08-17T18:15:51.361Z,18.60
2022-08-17T18:18:17.957Z,18.60
2022-08-17T18:20:55.812Z,18.55
2022-08-17T18:23:27.627Z,18.52
2022-08-17T18:25:56.235Z,18.50
2022-08-17T18:28:44.037Z,18.47
2022-08-17T18:31:20.987Z,18.42
2022-08-17T18:33:50.772Z,18.36
2022-08-17T18:36:30.267Z,18.30
2022-08-17T18:39:21.243Z,18.21
2022-08-17T18:41:53.558Z,18.14
2022-08-17T18:44:32.784Z,18.03
2022-08-17T18:47:19.499Z,17.95
2022-08-17T18:49:51.881Z,17.87
2022-08-17T18:52:34.150Z,17.84
2022-08-17T18:55:08.880Z,17.83
2022-08-17T18:57:39.444Z,17.76
2022-08-17T19:00:35.901Z,17.70
2022-08-17T19:03:18.580Z,17.59
2022-08-17T19:05:50.578Z,17.55
2022-08-17T19:08:29.174Z,17.48
2022-08-17T19:11:05.601Z,17.43
2022-08-17T19:13:38.682Z,17.42
2022-08-17T19:16:14.856Z,17.42
2022-08-17T19:18:58.699Z,17.41
2022-08-17T19:21:30.852Z,17.33
2022-08-17T19:24:13.796Z,17.29
2022-08-17T19:26:51.067Z,17.29
2022-08-17T19:29:48.041Z,17.22
2022-08-17T19:32:19.507Z,17.15
2022-08-17T19:34:46.280Z,17.14
2022-08-17T19:37:39.402Z,17.20
2022-08-17T19:40:51.216Z,17.17
2022-08-17T19:43:28.730Z,17.07
2022-08-17T19:46:11.522Z,17.07
2022-08-17T19:49:12.242Z,17.04
2022-08-17T19:51:48.827Z,17.04
2022-08-17T19:54:20.520Z,16.95
2022-08-17T19:57:16.020Z,16.92
2022-08-17T19:59:49.344Z,16.83
2022-08-17T20:02:35.702Z,16.84
2022-08-17T20:05:08.577Z,16.81
2022-08-17T20:07:53.384Z,16.80
2022-08-17T20:10:53.611Z,16.78
2022-08-17T20:13:33.271Z,16.86
2022-08-17T20:16:01.192Z,16.88
2022-08-17T20:18:37.686Z,16.87
2022-08-17T20:21:20.290Z,16.84
2022-08-17T20:23:59.537Z,16.84
2022-08-17T20:26:49.114Z,16.85
2022-08-17T20:29:36.991Z,16.76
2022-08-17T20:32:16.890Z,16.70
2022-08-17T20:34:47.201Z,16.64
2022-08-17T20:37:13.647Z,16.59
2022-08-17T20:40:05.393Z,16.54
2022-08-17T20:42:33.875Z,16.53
2022-08-17T20:45:21.840Z,16.52
2022-08-17T20:48:18.668Z,16.48
2022-08-17T20:50:45.232Z,16.49
2022-08-17T20:53:32.389Z,16.57
2022-08-17T20:55:58.963Z,16.66
2022-08-17T20:58:30.931Z,16.66
2022-08-17T21:00:57.935Z,16.64
2022-08-17T21:03:24.512Z,16.67
2022-08-17T21:06:16.905Z,16.69
2022-08-17T21:09:28.572Z,16.63
2022-08-17T21:12:04.980Z,16.50
2022-08-17T21:14:40.869Z,16.39
2022-08-17T21:17:31.118Z,16.32
2022-08-17T21:20:14.794Z,16.26
2022-08-17T21:23:16.518Z,16.23
2022-08-17T21:26:09.228Z,16.29
2022-08-17T21:29:29.893Z,16.33
2022-08-17T21:31:59.453Z,16.30
2022-08-17T21:34:44.970Z,16.20
2022-08-17T21:37:23.661Z,16.18
2022-08-17T21:40:24.490Z,16.17
2022-08-17T21:42:59.289Z,16.16
2022-08-17T21:45:30.880Z,16.20
2022-08-17T21:48:15.086Z,16.22
2022-08-17T21:50:45.782Z,16.21
2022-08-17T21:53:22.836Z,16.11
2022-08-17T21:55:50.337Z,16.06
2022-08-17T21:58:35.163Z,16.00
2022-08-17T22:01:21.051Z,16.00
2022-08-17T22:03:56.420Z,16.06
2022-08-17T22:06:25.014Z,16.01
2022-08-17T22:09:05.925Z,16.05
2022-08-17T22:11:57.549Z,16.03
2022-08-17T22:15:00.857Z,16.01
2022-08-17T22:17:27.345Z,16.02
2022-08-17T22:19:58.955Z,15.96
2022-08-17T22:22:27.896Z,15.94
2022-08-17T22:24:57.776Z,15.87
2022-08-17T22:27:45.864Z,15.85
2022-08-17T22:30:27.539Z,15.85
2022-08-17T22:32:54.230Z,15.81
2022-08-17T22:35:37.392Z,15.75
2022-08-17T22:38:19.347Z,15.74
2022-08-17T22:40:55.088Z,15.75
2022-08-17T22:43:26.385Z,15.73
2022-08-17T22:45:57.280Z,15.72
2022-08-17T22:48:28.926Z,15.64
2022-08-17T22:51:14.222Z,15.55
2022-08-17T22:54:08.700Z,15.45
2022-08-17T22:56:54.815Z,15.42
2022-08-17T22:59:44.294Z,15.38
2022-08-17T23:02:19.615Z,15.36
2022-08-17T23:05:07.236Z,15.41
2022-08-17T23:07:33.739Z,15.43
2022-08-17T23:10:02.168Z,15.47
2022-08-17T23:12:29.221Z,15.46
2022-08-17T23:15:01.237Z,15.46
2022-08-17T23:17:35.131Z,15.43
2022-08-17T23:20:09.104Z,15.37
2022-08-17T23:22:38.164Z,15.30
2022-08-17T23:25:29.422Z,15.26
2022-08-17T23:27:58.374Z,15.26
2022-08-17T23:30:25.685Z,15.28
2022-08-17T23:32:54.189Z,15.33
2022-08-17T23:35:40.279Z,15.36
2022-08-17T23:38:11.694Z,15.38
2022-08-17T23:40:39.832Z,15.40
2022-08-17T23:43:23.720Z,15.28
2022-08-17T23:45:57.544Z,15.26
2022-08-17T23:48:32.483Z,15.25
2022-08-17T23:51:14.862Z,15.22
2022-08-17T23:53:46.309Z,15.18
2022-08-17T23:56:12.944Z,15.21
2022-08-17T23:58:42.418Z,15.25
